createdAt,value
2017-11-28T00:01:48.102Z,3.47
2017-11-28T00:04:15.618Z,3.92
2017-11-28T00:06:43.846Z,3.70
2017-11-28T00:09:11.351Z,3.28
2017-11-28T00:11:39.441Z,3.45
2017-11-28T00:14:07.846Z,3.55
2017-11-28T00:16:36.075Z,5.43
2017-11-28T00:19:03.535Z,4.05
2017-11-28T00:21:30.993Z,4.20
2017-11-28T00:23:59.242Z,4.12
2017-11-28T00:26:27.484Z,4.70
2017-11-28T00:28:55.046Z,4.85
2017-11-28T00:31:22.590Z,5.60
2017-11-28T00:33:50.055Z,5.35
2017-11-28T00:36:17.541Z,5.95
2017-11-28T00:38:45.010Z,5.37
2017-11-28T00:41:12.562Z,5.07
2017-11-28T00:43:40.794Z,4.10
2017-11-28T00:46:08.258Z,5.90
2017-11-28T00:48:36.531Z,5.90
2017-11-28T00:51:04.790Z,6.25
2017-11-28T00:53:33.404Z,6.07
2017-11-28T00:56:00.858Z,5.80
2017-11-28T00:58:28.318Z,6.28
2017-11-28T01:00:55.806Z,6.65
2017-11-28T01:03:23.275Z,6.45
2017-11-28T01:05:50.771Z,6.65
2017-11-28T01:08:19.002Z,6.50
2017-11-28T01:10:46.571Z,6.57
2017-11-28T01:13:14.795Z,7.03
2017-11-28T01:15:42.258Z,7.37
2017-11-28T01:18:09.810Z,6.60
2017-11-28T01:20:38.045Z,7.03
2017-11-28T01:23:05.522Z,7.35
2017-11-28T01:25:33.781Z,6.62
2017-11-28T01:28:02.014Z,7.10
2017-11-28T01:30:29.478Z,7.28
2017-11-28T01:32:57.735Z,6.82
2017-11-28T01:35:25.962Z,6.60
2017-11-28T01:37:53.425Z,6.70
2017-11-28T01:40:20.981Z,7.10
2017-11-28T01:42:49.218Z,6.78
2017-11-28T01:45:16.678Z,6.60
2017-11-28T01:47:44.942Z,7.30
2017-11-28T01:50:13.203Z,7.30
2017-11-28T01:52:41.461Z,6.10
2017-11-28T01:55:09.703Z,6.93
2017-11-28T01:57:37.165Z,7.22
2017-11-28T02:00:05.397Z,6.55
2017-11-28T02:02:32.854Z,6.03
2017-11-28T02:05:00.310Z,7.07
2017-11-28T02:07:28.550Z,6.95
2017-11-28T02:09:56.006Z,5.57
2017-11-28T02:12:24.263Z,5.72
2017-11-28T02:14:52.529Z,5.93
2017-11-28T02:17:20.761Z,6.80
2017-11-28T02:19:48.215Z,5.62
2017-11-28T02:22:15.687Z,5.25
2017-11-28T02:24:43.142Z,5.50
2017-11-28T02:27:11.470Z,5.47
2017-11-28T02:29:39.731Z,5.35
2017-11-28T02:32:07.990Z,5.07
2017-11-28T02:34:36.225Z,6.10
2017-11-28T02:37:03.690Z,4.60
2017-11-28T02:39:31.949Z,4.45
2017-11-28T02:41:59.494Z,4.00
2017-11-28T02:44:27.754Z,5.00
2017-11-28T02:46:56.023Z,3.55
2017-11-28T02:49:30.832Z,4.20
2017-11-28T02:52:01.655Z,4.37
2017-11-28T02:54:29.881Z,5.18
2017-11-28T02:56:57.345Z,4.03
2017-11-28T02:59:25.613Z,5.60
2017-11-28T03:01:58.314Z,5.45
2017-11-28T03:04:25.777Z,5.07
2017-11-28T03:06:53.234Z,5.32
2017-11-28T03:09:30.218Z,5.47
2017-11-28T03:12:01.103Z,5.97
2017-11-28T03:14:31.257Z,5.90
2017-11-28T03:16:59.485Z,5.93
2017-11-28T03:19:31.793Z,6.30
2017-11-28T03:22:04.832Z,5.72
2017-11-28T03:24:49.376Z,5.90
2017-11-28T03:27:17.634Z,6.15
2017-11-28T03:29:46.667Z,7.25
2017-11-28T03:32:14.134Z,7.82
2017-11-28T03:34:41.598Z,8.48
2017-11-28T03:37:09.842Z,9.15
2017-11-28T03:39:37.298Z,8.52
2017-11-28T03:42:05.522Z,8.63
2017-11-28T03:47:43.554Z,8.82
2017-11-28T03:50:12.740Z,9.85
2017-11-28T03:52:40.971Z,11.07
2017-11-28T03:55:08.537Z,10.10
2017-11-28T03:57:36.765Z,11.88
2017-11-28T04:00:04.222Z,13.80
2017-11-28T04:02:31.682Z,12.57
2017-11-28T04:04:59.910Z,12.68
2017-11-28T04:07:27.370Z,12.85
2017-11-28T04:09:54.857Z,13.85
2017-11-28T04:12:22.310Z,13.00
2017-11-28T04:14:49.773Z,11.30
2017-11-28T04:17:17.248Z,11.00
2017-11-28T04:19:44.790Z,12.70
2017-11-28T04:22:12.242Z,12.75
2017-11-28T04:24:40.489Z,13.38
2017-11-28T04:27:08.030Z,12.07
2017-11-28T04:29:35.574Z,12.02
2017-11-28T04:32:03.046Z,12.43
2017-11-28T04:34:30.562Z,13.38
2017-11-28T04:36:58.014Z,13.15
2017-11-28T04:39:26.258Z,12.63
2017-11-28T04:41:53.801Z,12.23
2017-11-28T04:44:21.261Z,12.30
2017-11-28T04:46:49.489Z,13.43
2017-11-28T04:49:17.051Z,13.20
2017-11-28T04:51:44.511Z,11.98
2017-11-28T04:54:12.754Z,12.90
2017-11-28T04:56:42.650Z,10.80
2017-11-28T04:59:10.102Z,12.00
2017-11-28T05:01:38.351Z,14.00
2017-11-28T05:04:05.899Z,12.80
2017-11-28T05:06:34.155Z,13.50
2017-11-28T05:09:01.701Z,14.65
2017-11-28T05:11:29.242Z,14.73
2017-11-28T05:13:56.788Z,13.07
2017-11-28T05:16:24.328Z,11.77
2017-11-28T05:18:51.979Z,14.45
2017-11-28T05:21:19.442Z,13.30
2017-11-28T05:23:46.962Z,16.12
2017-11-28T05:26:15.194Z,15.02
2017-11-28T05:28:42.657Z,12.07
2017-11-28T05:31:10.313Z,14.60
2017-11-28T05:33:38.571Z,11.40
2017-11-28T05:36:06.829Z,14.98
2017-11-28T05:38:35.086Z,15.23
2017-11-28T05:41:02.646Z,14.57
2017-11-28T05:43:30.861Z,14.20
2017-11-28T05:45:58.334Z,15.15
2017-11-28T05:48:31.378Z,16.77
2017-11-28T05:50:58.837Z,16.98
2017-11-28T05:53:27.174Z,18.50
2017-11-28T05:55:54.750Z,15.35
2017-11-28T05:58:22.209Z,17.12
2017-11-28T06:01:02.330Z,15.70
2017-11-28T06:03:29.874Z,15.05
2017-11-28T06:05:57.518Z,15.07
2017-11-28T06:08:25.882Z,15.00
2017-11-28T06:10:53.336Z,14.15
2017-11-28T06:13:21.581Z,14.48
2017-11-28T06:15:49.034Z,14.20
2017-11-28T06:18:17.251Z,14.50
2017-11-28T06:20:44.717Z,13.50
2017-11-28T06:23:12.266Z,14.25
2017-11-28T06:25:39.813Z,11.57
2017-11-28T06:28:08.955Z,13.35
2017-11-28T06:30:36.415Z,13.95
2017-11-28T06:33:03.983Z,14.05
2017-11-28T06:35:32.253Z,12.18
2017-11-28T06:38:00.499Z,14.40
2017-11-28T06:40:28.758Z,11.88
2017-11-28T06:42:56.993Z,12.55
2017-11-28T06:45:24.457Z,14.27
2017-11-28T06:47:51.944Z,12.77
2017-11-28T06:50:19.466Z,13.57
2017-11-28T06:52:46.922Z,12.48
2017-11-28T06:55:15.166Z,12.70
2017-11-28T06:57:42.715Z,13.07
2017-11-28T07:00:10.166Z,14.30
2017-11-28T07:02:39.150Z,13.38
2017-11-28T07:05:07.390Z,11.90
2017-11-28T07:07:34.934Z,12.30
2017-11-28T07:10:02.479Z,12.15
2017-11-28T07:12:30.022Z,10.27
2017-11-28T07:14:57.473Z,11.45
2017-11-28T07:17:25.698Z,10.30
2017-11-28T07:19:53.259Z,12.45
2017-11-28T07:22:20.714Z,10.57
2017-11-28T07:24:48.930Z,12.20
2017-11-28T07:27:16.406Z,10.95
2017-11-28T07:29:43.962Z,10.00
2017-11-28T07:32:13.297Z,11.12
2017-11-28T07:34:40.783Z,8.95
2017-11-28T07:37:09.006Z,8.40
2017-11-28T07:39:36.482Z,8.90
2017-11-28T07:42:04.028Z,8.63
2017-11-28T07:44:32.282Z,9.30
2017-11-28T07:46:59.762Z,8.25
2017-11-28T07:49:27.274Z,9.57
2017-11-28T07:51:55.494Z,9.27
2017-11-28T07:54:22.965Z,7.03
2017-11-28T07:56:50.517Z,9.07
2017-11-28T07:59:17.966Z,8.25
2017-11-28T08:01:45.505Z,8.35
2017-11-28T08:04:13.055Z,7.12
2017-11-28T08:06:40.522Z,6.35
2017-11-28T08:09:07.979Z,7.18
2017-11-28T08:11:36.190Z,7.20
2017-11-28T08:14:03.732Z,7.50
2017-11-28T08:16:31.181Z,6.70
2017-11-28T08:18:58.726Z,8.02
2017-11-28T08:21:26.194Z,9.65
2017-11-28T08:23:53.654Z,7.85
2017-11-28T08:26:21.102Z,7.25
2017-11-28T08:28:48.562Z,7.53
2017-11-28T08:31:16.031Z,7.28
2017-11-28T08:33:44.258Z,6.85
2017-11-28T08:36:11.714Z,7.40
2017-11-28T08:38:39.172Z,8.55
2017-11-28T08:41:07.414Z,7.03
2017-11-28T08:43:34.874Z,6.37
2017-11-28T08:46:02.322Z,6.03
2017-11-28T08:48:30.547Z,7.60
2017-11-28T08:50:58.001Z,6.75
2017-11-28T08:53:25.467Z,7.25
2017-11-28T08:55:53.697Z,6.75
2017-11-28T08:58:21.164Z,6.03
2017-11-28T09:00:48.703Z,7.40
2017-11-28T09:03:16.252Z,7.10
2017-11-28T09:05:43.714Z,8.15
2017-11-28T09:08:11.926Z,8.45
2017-11-28T09:10:39.390Z,8.15
2017-11-28T09:13:06.938Z,9.85
2017-11-28T09:15:34.392Z,8.07
2017-11-28T09:18:02.643Z,8.00
2017-11-28T09:20:30.177Z,8.80
2017-11-28T09:22:57.638Z,9.27
2017-11-28T09:25:25.878Z,9.18
2017-11-28T09:27:53.425Z,8.10
2017-11-28T09:30:20.877Z,10.02
2017-11-28T09:32:49.098Z,8.20
2017-11-28T09:35:16.947Z,8.50
2017-11-28T09:37:44.413Z,7.00
2017-11-28T09:40:11.866Z,7.32
2017-11-28T09:42:39.321Z,7.22
2017-11-28T09:45:07.552Z,8.40
2017-11-28T09:47:35.002Z,8.23
2017-11-28T09:50:02.553Z,7.50
2017-11-28T09:52:30.793Z,7.50
2017-11-28T09:54:58.258Z,8.27
2017-11-28T09:57:25.702Z,8.18
2017-11-28T09:59:53.921Z,6.47
2017-11-28T10:02:21.374Z,6.75
2017-11-28T10:04:48.841Z,7.30
2017-11-28T10:07:17.093Z,7.32
2017-11-28T10:09:44.545Z,6.68
2017-11-28T10:12:12.775Z,7.25
2017-11-28T10:14:40.249Z,6.10
2017-11-28T10:17:08.459Z,6.90
2017-11-28T10:19:35.922Z,7.10
2017-11-28T10:22:03.382Z,7.68
2017-11-28T10:24:30.837Z,6.90
2017-11-28T10:26:59.050Z,5.25
2017-11-28T10:29:26.511Z,5.90
2017-11-28T10:31:53.963Z,5.57
2017-11-28T10:34:22.190Z,5.15
2017-11-28T10:36:49.652Z,6.18
2017-11-28T10:39:17.101Z,5.20
2017-11-28T10:41:44.651Z,5.35
2017-11-28T10:44:12.129Z,5.47
2017-11-28T10:46:39.593Z,6.35
2017-11-28T10:49:07.046Z,5.90
2017-11-28T10:51:34.502Z,4.90
2017-11-28T10:54:01.958Z,4.80
2017-11-28T10:56:29.422Z,5.40
2017-11-28T10:58:56.872Z,6.12
2017-11-28T11:01:24.321Z,6.97
2017-11-28T11:03:51.778Z,6.32
2017-11-28T11:06:19.993Z,5.57
2017-11-28T11:08:47.567Z,6.15
2017-11-28T11:11:15.113Z,7.18
2017-11-28T11:13:42.567Z,6.28
2017-11-28T11:16:10.810Z,6.30
2017-11-28T11:18:38.354Z,6.53
2017-11-28T11:21:05.895Z,5.78
2017-11-28T11:23:33.441Z,5.60
2017-11-28T11:26:00.986Z,6.97
2017-11-28T11:28:29.203Z,6.00
2017-11-28T11:30:56.658Z,5.97
2017-11-28T11:33:24.128Z,5.32
2017-11-28T11:35:51.586Z,5.95
2017-11-28T11:38:19.794Z,5.70
2017-11-28T11:40:47.274Z,6.22
2017-11-28T11:43:14.723Z,5.12
2017-11-28T11:45:42.953Z,6.78
2017-11-28T11:48:10.415Z,6.03
2017-11-28T11:50:38.673Z,6.00
2017-11-28T11:53:06.123Z,5.55
2017-11-28T11:55:34.490Z,6.72
2017-11-28T11:58:02.749Z,6.93
2017-11-28T12:00:30.298Z,5.95
2017-11-28T12:02:57.839Z,8.02
2017-11-28T12:05:25.282Z,7.25
2017-11-28T12:07:53.546Z,6.68
2017-11-28T12:10:21.017Z,6.10
2017-11-28T12:12:48.521Z,6.90
2017-11-28T12:15:16.066Z,6.70
2017-11-28T12:17:43.606Z,7.03
2017-11-28T12:20:11.150Z,5.82
2017-11-28T12:22:38.607Z,6.40
2017-11-28T12:25:06.817Z,6.57
2017-11-28T12:27:34.278Z,6.80
2017-11-28T12:30:01.730Z,6.97
2017-11-28T12:32:29.190Z,5.85
2017-11-28T12:34:57.403Z,6.10
2017-11-28T12:37:24.859Z,7.50
2017-11-28T12:39:52.423Z,5.50
2017-11-28T12:42:19.965Z,5.97
2017-11-28T12:44:47.506Z,5.60
2017-11-28T12:47:15.050Z,6.20
2017-11-28T12:49:42.597Z,6.30
2017-11-28T12:52:10.138Z,5.50
2017-11-28T12:54:37.602Z,6.40
2017-11-28T12:57:05.842Z,5.72
2017-11-28T12:59:34.077Z,5.62
2017-11-28T13:02:01.529Z,5.55
2017-11-28T13:04:29.786Z,5.22
2017-11-28T13:06:57.325Z,5.60
2017-11-28T13:09:24.774Z,5.65
2017-11-28T13:11:53.006Z,5.75
2017-11-28T13:14:20.473Z,5.03
2017-11-28T13:16:48.742Z,5.40
2017-11-28T13:19:16.997Z,5.05
2017-11-28T13:21:45.249Z,4.25
2017-11-28T13:24:13.483Z,4.93
2017-11-28T13:26:41.215Z,5.00
2017-11-28T13:29:08.705Z,5.37
2017-11-28T13:31:37.020Z,5.25
2017-11-28T13:34:04.538Z,6.18
2017-11-28T13:36:32.046Z,5.40
2017-11-28T13:38:59.498Z,6.10
2017-11-28T13:41:27.722Z,5.78
2017-11-28T13:43:55.230Z,6.45
2017-11-28T13:46:22.682Z,5.90
2017-11-28T13:48:50.142Z,5.55
2017-11-28T13:51:17.594Z,6.15
2017-11-28T13:53:45.056Z,6.68
2017-11-28T13:56:12.554Z,5.40
2017-11-28T13:58:40.310Z,6.00
2017-11-28T14:01:08.719Z,5.18
2017-11-28T14:03:36.217Z,5.47
2017-11-28T14:06:03.686Z,5.47
2017-11-28T14:08:31.133Z,5.72
2017-11-28T14:10:58.676Z,5.55
2017-11-28T14:13:26.205Z,6.20
2017-11-28T14:15:54.444Z,5.57
2017-11-28T14:18:21.894Z,6.05
2017-11-28T14:20:54.995Z,5.37
2017-11-28T14:23:39.223Z,5.00
2017-11-28T14:26:08.058Z,5.22
2017-11-28T14:28:35.514Z,5.20
2017-11-28T14:31:07.878Z,5.93
2017-11-28T14:33:38.536Z,5.35
2017-11-28T14:36:24.609Z,4.95
2017-11-28T14:38:54.298Z,5.07
2017-11-28T14:41:25.221Z,4.97
2017-11-28T14:43:56.335Z,5.75
2017-11-28T14:46:23.751Z,5.50
2017-11-28T14:48:51.202Z,5.35
2017-11-28T14:51:24.303Z,5.90
2017-11-28T14:53:58.397Z,5.43
2017-11-28T14:59:33.223Z,6.60
2017-11-28T15:02:13.521Z,6.43
2017-11-28T15:04:46.683Z,5.78
2017-11-28T15:07:26.721Z,6.60
2017-11-28T15:10:00.670Z,6.30
2017-11-28T15:15:30.746Z,7.90
2017-11-28T15:18:04.073Z,7.45
2017-11-28T15:20:35.526Z,6.95
2017-11-28T15:23:06.646Z,7.65
2017-11-28T15:28:35.687Z,8.27
2017-11-28T15:31:04.767Z,9.75
2017-11-28T15:33:32.233Z,8.82
2017-11-28T15:35:59.714Z,8.25
2017-11-28T15:38:27.978Z,9.68
2017-11-28T15:40:55.425Z,9.02
2017-11-28T15:43:22.915Z,9.35
2017-11-28T15:45:50.366Z,10.05
2017-11-28T15:48:17.922Z,10.07
2017-11-28T15:50:45.383Z,9.85
2017-11-28T15:53:13.625Z,9.63
2017-11-28T15:55:41.098Z,9.50
2017-11-28T15:58:08.550Z,10.65
2017-11-28T16:00:36.054Z,11.57
2017-11-28T16:03:03.598Z,10.43
2017-11-28T16:05:31.817Z,10.23
2017-11-28T16:07:59.398Z,11.40
2017-11-28T16:10:26.850Z,9.95
2017-11-28T16:12:55.066Z,11.00
2017-11-28T16:15:22.530Z,11.98
2017-11-28T16:17:49.978Z,10.35
2017-11-28T16:20:17.454Z,10.15
2017-11-28T16:22:44.998Z,10.60
2017-11-28T16:25:13.261Z,10.43
2017-11-28T16:27:41.494Z,10.70
2017-11-28T16:30:08.965Z,10.65
2017-11-28T16:32:37.198Z,11.52
2017-11-28T16:35:04.766Z,10.80
2017-11-28T16:37:32.223Z,10.95
2017-11-28T16:39:59.686Z,10.63
2017-11-28T16:42:27.186Z,11.82
2017-11-28T16:44:54.734Z,12.88
2017-11-28T16:47:22.185Z,12.63
2017-11-28T16:49:50.410Z,11.12
2017-11-28T16:52:17.885Z,12.88
2017-11-28T16:54:46.195Z,12.15
2017-11-28T16:57:13.662Z,11.45
2017-11-28T16:59:41.118Z,12.63
2017-11-28T17:02:08.662Z,13.27
2017-11-28T17:04:36.121Z,13.75
2017-11-28T17:07:04.346Z,11.63
2017-11-28T17:09:31.802Z,12.02
2017-11-28T17:11:59.286Z,12.15
2017-11-28T17:14:26.742Z,12.05
2017-11-28T17:16:54.199Z,14.45
2017-11-28T17:19:21.674Z,12.73
2017-11-28T17:21:49.132Z,11.82
2017-11-28T17:24:16.602Z,13.93
2017-11-28T17:26:44.146Z,13.00
2017-11-28T17:29:11.689Z,13.80
2017-11-28T17:31:39.917Z,12.75
2017-11-28T17:34:07.390Z,13.00
2017-11-28T17:36:34.850Z,12.60
2017-11-28T17:39:03.094Z,12.85
2017-11-28T17:41:30.542Z,11.27
2017-11-28T17:43:59.325Z,12.20
2017-11-28T17:46:26.846Z,13.30
2017-11-28T17:48:54.306Z,12.90
2017-11-28T17:51:22.527Z,10.70
2017-11-28T17:53:49.995Z,11.23
2017-11-28T17:56:18.255Z,10.90
2017-11-28T17:58:46.479Z,11.18
2017-11-28T18:01:13.934Z,10.25
2017-11-28T18:03:41.412Z,12.00
2017-11-28T18:06:09.633Z,11.15
2017-11-28T18:08:37.085Z,11.32
2017-11-28T18:11:04.561Z,13.43
2017-11-28T18:13:32.022Z,12.45
2017-11-28T18:15:59.470Z,13.98
2017-11-28T18:18:26.929Z,12.90
2017-11-28T18:20:54.386Z,15.45
2017-11-28T18:23:21.843Z,12.63
2017-11-28T18:25:49.394Z,12.48
2017-11-28T18:28:16.853Z,12.32
2017-11-28T18:30:45.103Z,12.88
2017-11-28T18:33:13.331Z,13.57
2017-11-28T18:35:40.785Z,11.88
2017-11-28T18:38:08.246Z,12.02
2017-11-28T18:40:36.477Z,12.07
2017-11-28T18:43:04.404Z,12.45
2017-11-28T18:45:31.854Z,12.40
2017-11-28T18:47:59.310Z,12.37
2017-11-28T18:50:26.779Z,14.00
2017-11-28T18:52:54.233Z,13.57
2017-11-28T18:55:22.454Z,13.20
2017-11-28T18:57:49.930Z,13.90
2017-11-28T19:00:18.160Z,12.90
2017-11-28T19:02:45.613Z,13.65
2017-11-28T19:05:13.093Z,13.45
2017-11-28T19:07:40.550Z,13.20
2017-11-28T19:10:08.016Z,14.05
2017-11-28T19:12:35.510Z,12.43
2017-11-28T19:15:03.747Z,14.10
2017-11-28T19:17:31.201Z,14.10
2017-11-28T19:19:59.429Z,13.35
2017-11-28T19:22:26.897Z,13.85
2017-11-28T19:24:54.350Z,12.50
2017-11-28T19:27:21.805Z,14.35
2017-11-28T19:29:50.053Z,17.67
2017-11-28T19:32:17.597Z,14.23
2017-11-28T19:34:45.057Z,14.98
2017-11-28T19:37:13.353Z,14.25
2017-11-28T19:39:40.806Z,13.62
2017-11-28T19:42:08.266Z,14.60
2017-11-28T19:44:35.741Z,13.68
2017-11-28T19:47:03.974Z,13.90
2017-11-28T19:49:31.437Z,13.18
2017-11-28T19:51:59.674Z,13.15
2017-11-28T19:54:27.130Z,15.02
2017-11-28T19:56:54.587Z,15.70
2017-11-28T19:59:22.829Z,14.35
2017-11-28T20:01:50.310Z,13.85
2017-11-28T20:04:17.763Z,15.30
2017-11-28T20:06:45.259Z,14.27
2017-11-28T20:09:13.514Z,15.30
2017-11-28T20:11:40.969Z,14.68
2017-11-28T20:14:08.502Z,15.48
2017-11-28T20:16:36.722Z,17.15
2017-11-28T20:19:04.173Z,18.50
2017-11-28T20:21:31.846Z,15.18
2017-11-28T20:24:00.066Z,16.55
2017-11-28T20:26:27.517Z,17.02
2017-11-28T20:28:55.749Z,18.52
2017-11-28T20:31:23.207Z,17.52
2017-11-28T20:33:50.666Z,16.30
2017-11-28T20:36:18.195Z,17.17
2017-11-28T20:38:45.610Z,16.75
2017-11-28T20:41:13.066Z,18.98
2017-11-28T20:43:40.525Z,18.80
2017-11-28T20:46:07.979Z,16.25
2017-11-28T20:48:35.454Z,18.08
2017-11-28T20:51:02.909Z,18.58
2017-11-28T20:53:30.407Z,16.60
2017-11-28T20:55:57.870Z,20.35
2017-11-28T20:58:26.112Z,18.02
2017-11-28T21:00:53.653Z,19.12
2017-11-28T21:03:21.123Z,18.05
2017-11-28T21:05:48.642Z,17.77
2017-11-28T21:08:16.116Z,18.27
2017-11-28T21:10:43.625Z,17.95
2017-11-28T21:13:11.171Z,19.35
2017-11-28T21:15:39.433Z,18.02
2017-11-28T21:18:06.884Z,20.30
2017-11-28T21:20:34.358Z,19.80
2017-11-28T21:23:01.819Z,18.80
2017-11-28T21:25:29.287Z,19.52
2017-11-28T21:27:56.767Z,20.00
2017-11-28T21:30:25.014Z,17.85
2017-11-28T21:32:53.245Z,20.73
2017-11-28T21:35:20.714Z,21.85
2017-11-28T21:37:48.934Z,20.48
2017-11-28T21:40:16.416Z,19.45
2017-11-28T21:42:44.677Z,19.85
2017-11-28T21:45:12.156Z,19.33
2017-11-28T21:47:39.630Z,21.02
2017-11-28T21:50:07.086Z,21.15
2017-11-28T21:52:34.545Z,20.17
2017-11-28T21:55:02.769Z,19.90
2017-11-28T21:57:30.227Z,22.05
2017-11-28T21:59:57.682Z,21.83
2017-11-28T22:02:25.227Z,22.60
2017-11-28T22:04:52.729Z,19.23
2017-11-28T22:07:20.190Z,19.27
2017-11-28T22:09:47.652Z,23.67
2017-11-28T22:12:15.114Z,22.50
2017-11-28T22:14:43.338Z,19.55
2017-11-28T22:17:10.826Z,19.70
2017-11-28T22:19:38.282Z,20.37
2017-11-28T22:22:05.738Z,18.30
2017-11-28T22:24:33.233Z,19.60
2017-11-28T22:27:01.462Z,19.27
2017-11-28T22:29:28.930Z,19.77
2017-11-28T22:31:57.185Z,18.12
2017-11-28T22:34:24.647Z,20.90
2017-11-28T22:36:52.128Z,20.30
2017-11-28T22:39:19.605Z,19.60
2017-11-28T22:41:47.151Z,19.10
2017-11-28T22:44:15.410Z,18.08
2017-11-28T22:46:42.870Z,20.30
2017-11-28T22:49:11.117Z,22.90
2017-11-28T22:51:38.657Z,22.52
2017-11-28T22:54:06.109Z,21.05
2017-11-28T22:56:34.337Z,20.88
2017-11-28T22:59:01.794Z,19.52
2017-11-28T23:01:29.245Z,21.70
2017-11-28T23:03:57.497Z,19.55
2017-11-28T23:06:25.042Z,20.62
2017-11-28T23:08:52.495Z,22.95
2017-11-28T23:11:19.970Z,20.90
2017-11-28T23:14:02.042Z,23.30
2017-11-28T23:16:30.337Z,22.65
2017-11-28T23:18:59.245Z,21.00
2017-11-28T23:21:26.791Z,21.87
2017-11-28T23:23:55.030Z,21.95
2017-11-28T23:26:22.590Z,23.55
2017-11-28T23:28:50.134Z,21.50
2017-11-28T23:31:17.687Z,22.70
2017-11-28T23:33:45.945Z,23.15
2017-11-28T23:36:14.186Z,24.48
2017-11-28T23:38:41.637Z,26.05
2017-11-28T23:41:09.089Z,23.75
2017-11-28T23:43:37.330Z,22.87
2017-11-28T23:46:04.782Z,22.05
2017-11-28T23:48:32.238Z,23.00
2017-11-28T23:51:00.486Z,21.10
2017-11-28T23:53:27.938Z,24.17
2017-11-28T23:55:55.402Z,21.50
2017-11-28T23:58:22.874Z,21.23
